DGPHX EDDN-EDDN

Flight info

Callsign DGPHX
Flight time 0h 21m
Altitude
Route
Aircraft DA62

Departure

Time 2026-05-04 18:22
Airport Nuremberg Airport (EDDN)

Arrival

Time 2026-05-04 18:43
Airport Nuremberg Airport (EDDN)
Time Latitude Longitude Altitude Speed Heading
2026-05-04 18:16 49.49549 11.07089 1019 ft 0 kts
2026-05-04 18:17 49.49586 11.07112 1019 ft 10 kts 60°
2026-05-04 18:17 49.49624 11.07216 1021 ft 9 kts
2026-05-04 18:18 49.49705 11.07236 1021 ft 7 kts 29°
2026-05-04 18:18 49.49722 11.07402 1023 ft 24 kts 90°
2026-05-04 18:18 49.49700 11.07625 1027 ft 19 kts 105°
2026-05-04 18:18 49.49653 11.07773 1026 ft 15 kts 176°
2026-05-04 18:19 49.49535 11.08276 1026 ft 22 kts 95°
2026-05-04 18:19 49.49616 11.08388 1026 ft 19 kts 49°
2026-05-04 18:19 49.49637 11.08428 1025 ft 0 kts 54°
2026-05-04 18:21 49.49657 11.08469 1025 ft 19 kts 51°
2026-05-04 18:21 49.49767 11.08552 1023 ft 17 kts 328°
2026-05-04 18:21 49.49805 11.08455 1023 ft 0 kts 278°
2026-05-04 18:21 49.49806 11.08446 1022 ft 9 kts 278°
2026-05-04 18:22 49.49851 11.08006 1026 ft 69 kts 279°
2026-05-04 18:22 49.49926 11.07091 1134 ft 96 kts 278°
2026-05-04 18:22 49.50036 11.06018 1365 ft 109 kts 277°
2026-05-04 18:22 49.50031 11.04856 1663 ft 115 kts 233°
2026-05-04 18:23 49.49233 11.04477 1831 ft 133 kts 188°
2026-05-04 18:23 49.48254 11.04418 1920 ft 150 kts 157°
2026-05-04 18:23 49.47794 11.05746 2165 ft 146 kts 94°
2026-05-04 18:23 49.47697 11.07290 2245 ft 142 kts 93°
2026-05-04 18:24 49.47591 11.08788 2203 ft 142 kts 96°
2026-05-04 18:24 49.47506 11.10261 2153 ft 132 kts 73°
2026-05-04 18:24 49.47479 11.11620 2117 ft 138 kts 97°
2026-05-04 18:24 49.47333 11.12995 2050 ft 117 kts 92°
2026-05-04 18:25 49.47259 11.14221 1968 ft 114 kts 91°
2026-05-04 18:25 49.47455 11.15319 1820 ft 110 kts 30°
2026-05-04 18:25 49.48117 11.15648 1719 ft 96 kts
2026-05-04 18:25 49.48753 11.15516 1710 ft 89 kts 343°
2026-05-04 18:26 49.49117 11.14776 1623 ft 94 kts 290°
2026-05-04 18:26 49.49261 11.13870 1536 ft 79 kts 282°
2026-05-04 18:26 49.49330 11.12994 1503 ft 87 kts 281°
2026-05-04 18:26 49.49429 11.12112 1397 ft 83 kts 281°
2026-05-04 18:27 49.49517 11.11220 1304 ft 91 kts 281°
2026-05-04 18:27 49.49630 11.10125 1164 ft 106 kts 283°
2026-05-04 18:27 49.49736 11.09124 1036 ft 80 kts 283°
2026-05-04 18:27 49.49813 11.08210 1269 ft 87 kts 278°
2026-05-04 18:28 49.49888 11.07281 1538 ft 95 kts 281°
2026-05-04 18:28 49.49992 11.06199 1777 ft 109 kts 277°
2026-05-04 18:28 49.49937 11.04975 1986 ft 124 kts 239°
2026-05-04 18:28 49.49144 11.04541 2034 ft 124 kts 185°
2026-05-04 18:29 49.48285 11.04517 2006 ft 125 kts 164°
2026-05-04 18:29 49.47868 11.05549 2024 ft 119 kts 94°
2026-05-04 18:29 49.47777 11.06807 2034 ft 121 kts 94°
2026-05-04 18:29 49.47684 11.08056 2059 ft 115 kts 94°
2026-05-04 18:30 49.47534 11.10530 2039 ft 123 kts 89°
2026-05-04 18:30 49.47492 11.11898 1977 ft 132 kts 91°
2026-05-04 18:30 49.47729 11.13047 1880 ft 106 kts 21°
2026-05-04 18:31 49.48428 11.13074 1624 ft 104 kts 350°
2026-05-04 18:31 49.49088 11.12851 1532 ft 91 kts 338°
2026-05-04 18:31 49.49435 11.12076 1370 ft 92 kts 284°
2026-05-04 18:31 49.49541 11.11102 1258 ft 94 kts 279°
2026-05-04 18:32 49.49639 11.10104 1135 ft 90 kts 279°
2026-05-04 18:32 49.49731 11.09207 1036 ft 77 kts 278°
2026-05-04 18:32 49.49810 11.08218 1082 ft 109 kts 276°
2026-05-04 18:32 49.49439 11.07418 1422 ft 109 kts 191°
2026-05-04 18:33 49.48598 11.07304 1468 ft 130 kts 182°
2026-05-04 18:33 49.47695 11.07498 1662 ft 135 kts 135°
2026-05-04 18:33 49.47481 11.08831 1862 ft 135 kts 96°
2026-05-04 18:33 49.47194 11.10136 1953 ft 121 kts 136°
2026-05-04 18:34 49.46447 11.10295 1804 ft 111 kts 210°
2026-05-04 18:34 49.46081 11.09399 1658 ft 104 kts 284°
2026-05-04 18:34 49.46636 11.08977 1731 ft 103 kts 15°
2026-05-04 18:34 49.47128 11.09799 1691 ft 117 kts 73°
2026-05-04 18:35 49.47106 11.11076 1854 ft 123 kts 97°
2026-05-04 18:35 49.46971 11.12374 1930 ft 114 kts 95°
2026-05-04 18:35 49.46954 11.13558 1747 ft 107 kts 85°
2026-05-04 18:35 49.46958 11.14667 1854 ft 102 kts 84°
2026-05-04 18:36 49.46997 11.15765 1911 ft 108 kts 86°
2026-05-04 18:36 49.47245 11.16814 1890 ft 103 kts 26°
2026-05-04 18:36 49.47886 11.16973 1884 ft 90 kts
2026-05-04 18:36 49.48505 11.16848 1885 ft 93 kts 335°
2026-05-04 18:37 49.48956 11.16142 1791 ft 96 kts 301°
2026-05-04 18:37 49.49126 11.15134 1722 ft 96 kts 283°
2026-05-04 18:37 49.49234 11.14160 1604 ft 86 kts 281°
2026-05-04 18:37 49.49312 11.13230 1488 ft 91 kts 282°
2026-05-04 18:38 49.49412 11.12285 1368 ft 87 kts 282°
2026-05-04 18:38 49.49535 11.11341 1447 ft 90 kts 308°
2026-05-04 18:38 49.49254 11.10804 1559 ft 97 kts 182°
2026-05-04 18:38 49.48554 11.10677 1628 ft 104 kts 198°
2026-05-04 18:39 49.47809 11.10502 1732 ft 107 kts 183°
2026-05-04 18:39 49.47098 11.10316 1782 ft 104 kts 236°
2026-05-04 18:39 49.47254 11.09503 1918 ft 95 kts
2026-05-04 18:39 49.47414 11.10330 2026 ft 111 kts 137°
2026-05-04 18:40 49.46798 11.10156 2181 ft 107 kts 264°
2026-05-04 18:40 49.47162 11.09530 2323 ft 97 kts 32°
2026-05-04 18:40 49.47304 11.10136 2410 ft 109 kts 119°
2026-05-04 18:40 49.46661 11.10151 2558 ft 109 kts 254°
2026-05-04 18:41 49.46951 11.09365 2629 ft 103 kts 10°
2026-05-04 18:41 49.47260 11.10176 2733 ft 114 kts 128°
2026-05-04 18:41 49.46575 11.10116 2854 ft 117 kts 251°
2026-05-04 18:41 49.46946 11.09385 2821 ft 118 kts 24°
2026-05-04 18:42 49.47743 11.10164 2311 ft 152 kts 36°
2026-05-04 18:42 49.48595 11.11259 1852 ft 166 kts 39°
2026-05-04 18:42 49.49390 11.11731 1655 ft 101 kts 309°
2026-05-04 18:42 49.49581 11.10761 1228 ft 89 kts 275°
2026-05-04 18:43 49.49670 11.09844 1084 ft 93 kts 281°
2026-05-04 18:43 49.49761 11.08876 1031 ft 78 kts 282°
2026-05-04 18:43 49.49836 11.08160 1023 ft 51 kts 282°
2026-05-04 18:43 49.49875 11.07720 1027 ft 21 kts 272°
2026-05-04 18:44 49.49789 11.07671 1026 ft 4 kts 176°
2026-05-04 18:44 49.49757 11.07703 1027 ft 2 kts 155°
2026-05-04 18:44 49.49757 11.07704 1027 ft 0 kts 155°
2026-05-04 18:45 49.49756 11.07704 1027 ft 0 kts 155°
2026-05-04 18:45 49.49731 11.07724 1027 ft 12 kts 152°
2026-05-04 18:46 49.49680 11.07755 1026 ft 4 kts 245°
2026-05-04 18:46 49.49683 11.07730 1026 ft 0 kts 277°
2026-05-04 18:46 49.49647 11.07762 1026 ft 17 kts 156°
2026-05-04 18:46 49.49602 11.07628 1024 ft 22 kts 264°
2026-05-04 18:47 49.49624 11.07389 1022 ft 28 kts 278°
2026-05-04 18:47 49.49609 11.07213 1021 ft 10 kts 199°
2026-05-04 18:47 49.49545 11.07199 1020 ft 25 kts 186°
2026-05-04 18:47 49.49517 11.07023 1019 ft 25 kts 279°
2026-05-04 18:48 49.49483 11.06929 1020 ft 8 kts 122°
2026-05-04 18:48 49.49479 11.06962 1020 ft 0 kts 95°